sensor_id;sensor_type;location;lat;lon;timestamp;temperature;humidity
29003;DHT22;16102;57.138;-2.118;2023-07-22T00:00:50;12.80;99.90
29003;DHT22;16102;57.138;-2.118;2023-07-22T00:03:18;12.90;99.90
29003;DHT22;16102;57.138;-2.118;2023-07-22T00:05:45;12.90;99.90
29003;DHT22;16102;57.138;-2.118;2023-07-22T00:08:12;12.90;99.90
29003;DHT22;16102;57.138;-2.118;2023-07-22T00:10:42;12.90;99.90
29003;DHT22;16102;57.138;-2.118;2023-07-22T00:13:09;12.90;99.90
29003;DHT22;16102;57.138;-2.118;2023-07-22T00:15:36;12.90;99.90
29003;DHT22;16102;57.138;-2.118;2023-07-22T00:18:03;12.80;99.90
29003;DHT22;16102;57.138;-2.118;2023-07-22T00:20:30;12.90;99.90
29003;DHT22;16102;57.138;-2.118;2023-07-22T00:22:57;12.90;99.90
29003;DHT22;16102;57.138;-2.118;2023-07-22T00:25:25;12.90;99.90
29003;DHT22;16102;57.138;-2.118;2023-07-22T00:27:52;12.90;99.90
29003;DHT22;16102;57.138;-2.118;2023-07-22T00:30:19;12.80;99.90
29003;DHT22;16102;57.138;-2.118;2023-07-22T00:32:46;12.90;99.90
29003;DHT22;16102;57.138;-2.118;2023-07-22T00:35:13;12.80;99.90
29003;DHT22;16102;57.138;-2.118;2023-07-22T00:37:40;12.70;99.90
29003;DHT22;16102;57.138;-2.118;2023-07-22T00:40:08;12.80;99.90
29003;DHT22;16102;57.138;-2.118;2023-07-22T00:42:39;12.90;99.90
29003;DHT22;16102;57.138;-2.118;2023-07-22T00:45:10;12.90;99.90
29003;DHT22;16102;57.138;-2.118;2023-07-22T00:47:37;12.90;99.90
29003;DHT22;16102;57.138;-2.118;2023-07-22T00:50:07;12.80;99.90
29003;DHT22;16102;57.138;-2.118;2023-07-22T00:52:35;12.80;99.90
29003;DHT22;16102;57.138;-2.118;2023-07-22T00:55:03;12.90;99.90
29003;DHT22;16102;57.138;-2.118;2023-07-22T00:57:31;12.90;99.90
29003;DHT22;16102;57.138;-2.118;2023-07-22T00:59:59;13.00;99.90
29003;DHT22;16102;57.138;-2.118;2023-07-22T01:02:26;13.00;99.90
29003;DHT22;16102;57.138;-2.118;2023-07-22T01:04:53;12.90;99.90
29003;DHT22;16102;57.138;-2.118;2023-07-22T01:07:20;12.90;99.90
29003;DHT22;16102;57.138;-2.118;2023-07-22T01:09:47;12.90;99.90
29003;DHT22;16102;57.138;-2.118;2023-07-22T01:12:14;12.90;99.90
29003;DHT22;16102;57.138;-2.118;2023-07-22T01:14:41;12.90;99.90
29003;DHT22;16102;57.138;-2.118;2023-07-22T01:17:10;12.90;99.90
29003;DHT22;16102;57.138;-2.118;2023-07-22T01:19:38;12.90;99.90
29003;DHT22;16102;57.138;-2.118;2023-07-22T01:22:06;12.90;99.90
29003;DHT22;16102;57.138;-2.118;2023-07-22T01:24:35;12.90;99.90
29003;DHT22;16102;57.138;-2.118;2023-07-22T01:27:03;12.80;99.90
29003;DHT22;16102;57.138;-2.118;2023-07-22T01:29:31;12.60;99.90
29003;DHT22;16102;57.138;-2.118;2023-07-22T01:31:58;12.60;99.90
29003;DHT22;16102;57.138;-2.118;2023-07-22T01:34:26;12.60;99.90
29003;DHT22;16102;57.138;-2.118;2023-07-22T01:36:53;12.60;99.90
29003;DHT22;16102;57.138;-2.118;2023-07-22T01:39:20;12.60;99.90
29003;DHT22;16102;57.138;-2.118;2023-07-22T01:41:48;12.60;99.90
29003;DHT22;16102;57.138;-2.118;2023-07-22T01:44:15;12.60;99.90
29003;DHT22;16102;57.138;-2.118;2023-07-22T01:46:42;12.60;99.90
29003;DHT22;16102;57.138;-2.118;2023-07-22T01:49:11;12.50;99.90
29003;DHT22;16102;57.138;-2.118;2023-07-22T01:51:39;12.40;99.90
29003;DHT22;16102;57.138;-2.118;2023-07-22T01:54:10;12.40;99.90
29003;DHT22;16102;57.138;-2.118;2023-07-22T01:56:37;12.40;99.90
29003;DHT22;16102;57.138;-2.118;2023-07-22T01:59:05;12.40;99.90
29003;DHT22;16102;57.138;-2.118;2023-07-22T02:01:32;12.30;99.90
29003;DHT22;16102;57.138;-2.118;2023-07-22T02:04:00;12.30;99.90
29003;DHT22;16102;57.138;-2.118;2023-07-22T02:06:27;12.30;99.90
29003;DHT22;16102;57.138;-2.118;2023-07-22T02:08:56;12.20;99.90
29003;DHT22;16102;57.138;-2.118;2023-07-22T02:11:23;12.20;99.90
29003;DHT22;16102;57.138;-2.118;2023-07-22T02:13:50;12.10;99.90
29003;DHT22;16102;57.138;-2.118;2023-07-22T02:16:17;12.10;99.90
29003;DHT22;16102;57.138;-2.118;2023-07-22T02:18:45;12.10;99.90
29003;DHT22;16102;57.138;-2.118;2023-07-22T02:21:13;12.00;99.90
29003;DHT22;16102;57.138;-2.118;2023-07-22T02:23:40;11.90;99.90
29003;DHT22;16102;57.138;-2.118;2023-07-22T02:26:07;11.90;1.00
29003;DHT22;16102;57.138;-2.118;2023-07-22T02:28:34;11.80;1.00
29003;DHT22;16102;57.138;-2.118;2023-07-22T02:31:02;11.70;1.00
29003;DHT22;16102;57.138;-2.118;2023-07-22T02:33:34;11.70;1.00
29003;DHT22;16102;57.138;-2.118;2023-07-22T02:36:01;11.60;1.00
29003;DHT22;16102;57.138;-2.118;2023-07-22T02:38:28;11.50;1.00
29003;DHT22;16102;57.138;-2.118;2023-07-22T02:41:01;11.50;1.00
29003;DHT22;16102;57.138;-2.118;2023-07-22T02:43:29;11.40;1.00
29003;DHT22;16102;57.138;-2.118;2023-07-22T02:45:56;11.50;1.00
29003;DHT22;16102;57.138;-2.118;2023-07-22T02:48:23;11.40;1.00
29003;DHT22;16102;57.138;-2.118;2023-07-22T02:50:50;11.30;1.00
29003;DHT22;16102;57.138;-2.118;2023-07-22T02:53:17;11.30;1.00
29003;DHT22;16102;57.138;-2.118;2023-07-22T02:55:44;11.20;1.00
29003;DHT22;16102;57.138;-2.118;2023-07-22T02:58:13;11.20;1.00
29003;DHT22;16102;57.138;-2.118;2023-07-22T03:00:39;11.20;1.00
29003;DHT22;16102;57.138;-2.118;2023-07-22T03:03:06;11.30;1.00
29003;DHT22;16102;57.138;-2.118;2023-07-22T03:05:35;11.40;1.00
29003;DHT22;16102;57.138;-2.118;2023-07-22T03:08:02;11.40;1.00
29003;DHT22;16102;57.138;-2.118;2023-07-22T03:10:29;11.40;1.00
29003;DHT22;16102;57.138;-2.118;2023-07-22T03:12:56;11.30;1.00
29003;DHT22;16102;57.138;-2.118;2023-07-22T03:15:24;11.30;1.00
29003;DHT22;16102;57.138;-2.118;2023-07-22T03:17:54;11.30;1.00
29003;DHT22;16102;57.138;-2.118;2023-07-22T03:20:22;11.30;1.00
29003;DHT22;16102;57.138;-2.118;2023-07-22T03:22:51;11.30;1.00
29003;DHT22;16102;57.138;-2.118;2023-07-22T03:25:19;11.10;1.00
29003;DHT22;16102;57.138;-2.118;2023-07-22T03:27:47;11.10;1.00
29003;DHT22;16102;57.138;-2.118;2023-07-22T03:30:15;11.10;1.00
29003;DHT22;16102;57.138;-2.118;2023-07-22T03:32:45;11.20;1.00
29003;DHT22;16102;57.138;-2.118;2023-07-22T03:35:12;11.20;1.00
29003;DHT22;16102;57.138;-2.118;2023-07-22T03:37:40;11.10;1.00
29003;DHT22;16102;57.138;-2.118;2023-07-22T03:40:08;11.00;1.00
29003;DHT22;16102;57.138;-2.118;2023-07-22T03:42:45;11.10;1.00
29003;DHT22;16102;57.138;-2.118;2023-07-22T03:45:12;11.00;1.00
29003;DHT22;16102;57.138;-2.118;2023-07-22T03:47:40;11.10;1.00
29003;DHT22;16102;57.138;-2.118;2023-07-22T03:50:08;11.00;1.00
29003;DHT22;16102;57.138;-2.118;2023-07-22T03:52:35;11.00;1.00
29003;DHT22;16102;57.138;-2.118;2023-07-22T03:55:03;11.10;1.00
29003;DHT22;16102;57.138;-2.118;2023-07-22T03:57:30;11.10;1.00
29003;DHT22;16102;57.138;-2.118;2023-07-22T03:59:57;11.10;1.00
29003;DHT22;16102;57.138;-2.118;2023-07-22T04:02:24;11.10;1.00
29003;DHT22;16102;57.138;-2.118;2023-07-22T04:04:54;11.10;1.00
29003;DHT22;16102;57.138;-2.118;2023-07-22T04:07:22;11.10;1.00
29003;DHT22;16102;57.138;-2.118;2023-07-22T04:09:49;11.00;1.00
29003;DHT22;16102;57.138;-2.118;2023-07-22T04:12:16;10.90;1.00
29003;DHT22;16102;57.138;-2.118;2023-07-22T04:14:44;11.00;1.00
29003;DHT22;16102;57.138;-2.118;2023-07-22T04:17:11;11.00;1.00
29003;DHT22;16102;57.138;-2.118;2023-07-22T04:19:38;11.10;1.00
29003;DHT22;16102;57.138;-2.118;2023-07-22T04:22:05;11.10;1.00
29003;DHT22;16102;57.138;-2.118;2023-07-22T04:24:33;11.10;1.00
29003;DHT22;16102;57.138;-2.118;2023-07-22T04:27:01;11.10;1.00
29003;DHT22;16102;57.138;-2.118;2023-07-22T04:29:28;11.20;1.00
29003;DHT22;16102;57.138;-2.118;2023-07-22T04:31:59;11.20;1.00
29003;DHT22;16102;57.138;-2.118;2023-07-22T04:34:31;11.20;1.00
29003;DHT22;16102;57.138;-2.118;2023-07-22T04:36:58;11.20;99.90
29003;DHT22;16102;57.138;-2.118;2023-07-22T04:39:26;11.20;99.90
29003;DHT22;16102;57.138;-2.118;2023-07-22T04:41:54;11.10;99.90
29003;DHT22;16102;57.138;-2.118;2023-07-22T04:44:21;11.10;99.90
29003;DHT22;16102;57.138;-2.118;2023-07-22T04:46:48;11.10;99.90
29003;DHT22;16102;57.138;-2.118;2023-07-22T04:49:15;11.00;99.90
29003;DHT22;16102;57.138;-2.118;2023-07-22T04:51:46;10.70;99.90
29003;DHT22;16102;57.138;-2.118;2023-07-22T04:54:13;10.80;1.00
29003;DHT22;16102;57.138;-2.118;2023-07-22T04:56:42;10.90;1.00
29003;DHT22;16102;57.138;-2.118;2023-07-22T04:59:09;11.00;1.00
29003;DHT22;16102;57.138;-2.118;2023-07-22T05:01:37;11.00;1.00
29003;DHT22;16102;57.138;-2.118;2023-07-22T05:04:04;11.00;1.00
29003;DHT22;16102;57.138;-2.118;2023-07-22T05:06:32;11.10;1.00
29003;DHT22;16102;57.138;-2.118;2023-07-22T05:09:00;11.10;1.00
29003;DHT22;16102;57.138;-2.118;2023-07-22T05:11:27;11.00;99.90
29003;DHT22;16102;57.138;-2.118;2023-07-22T05:13:54;11.00;1.00
29003;DHT22;16102;57.138;-2.118;2023-07-22T05:16:21;11.10;1.00
29003;DHT22;16102;57.138;-2.118;2023-07-22T05:18:48;11.20;1.00
29003;DHT22;16102;57.138;-2.118;2023-07-22T05:21:16;11.30;1.00
29003;DHT22;16102;57.138;-2.118;2023-07-22T05:23:43;11.30;1.00
29003;DHT22;16102;57.138;-2.118;2023-07-22T05:26:10;11.20;99.90
29003;DHT22;16102;57.138;-2.118;2023-07-22T05:28:37;11.20;99.90
29003;DHT22;16102;57.138;-2.118;2023-07-22T05:31:04;11.30;1.00
29003;DHT22;16102;57.138;-2.118;2023-07-22T05:33:31;11.40;1.00
29003;DHT22;16102;57.138;-2.118;2023-07-22T05:35:58;11.50;1.00
29003;DHT22;16102;57.138;-2.118;2023-07-22T05:38:25;11.60;99.90
29003;DHT22;16102;57.138;-2.118;2023-07-22T05:40:55;11.60;99.90
29003;DHT22;16102;57.138;-2.118;2023-07-22T05:43:22;11.70;99.90
29003;DHT22;16102;57.138;-2.118;2023-07-22T05:45:49;11.70;99.90
29003;DHT22;16102;57.138;-2.118;2023-07-22T05:48:17;11.80;99.90
29003;DHT22;16102;57.138;-2.118;2023-07-22T05:50:44;11.80;99.90
29003;DHT22;16102;57.138;-2.118;2023-07-22T05:53:11;11.90;99.90
29003;DHT22;16102;57.138;-2.118;2023-07-22T05:55:38;12.00;99.90
29003;DHT22;16102;57.138;-2.118;2023-07-22T05:58:05;12.10;99.90
29003;DHT22;16102;57.138;-2.118;2023-07-22T06:00:33;12.10;99.90
29003;DHT22;16102;57.138;-2.118;2023-07-22T06:03:01;11.90;99.90
29003;DHT22;16102;57.138;-2.118;2023-07-22T06:05:28;12.10;99.90
29003;DHT22;16102;57.138;-2.118;2023-07-22T06:07:55;12.20;99.90
29003;DHT22;16102;57.138;-2.118;2023-07-22T06:10:24;12.30;99.90
29003;DHT22;16102;57.138;-2.118;2023-07-22T06:12:54;12.30;99.90
29003;DHT22;16102;57.138;-2.118;2023-07-22T06:15:21;12.20;99.90
29003;DHT22;16102;57.138;-2.118;2023-07-22T06:17:49;12.40;99.90
29003;DHT22;16102;57.138;-2.118;2023-07-22T06:20:16;12.50;99.90
29003;DHT22;16102;57.138;-2.118;2023-07-22T06:22:42;12.60;99.90
29003;DHT22;16102;57.138;-2.118;2023-07-22T06:25:09;12.70;99.90
29003;DHT22;16102;57.138;-2.118;2023-07-22T06:27:38;12.70;99.90
29003;DHT22;16102;57.138;-2.118;2023-07-22T06:30:05;12.70;99.90
29003;DHT22;16102;57.138;-2.118;2023-07-22T06:32:33;12.80;99.90
29003;DHT22;16102;57.138;-2.118;2023-07-22T06:35:00;12.90;99.90
29003;DHT22;16102;57.138;-2.118;2023-07-22T06:37:27;13.00;99.90
29003;DHT22;16102;57.138;-2.118;2023-07-22T06:39:54;13.10;99.90
29003;DHT22;16102;57.138;-2.118;2023-07-22T06:42:21;13.40;99.90
29003;DHT22;16102;57.138;-2.118;2023-07-22T06:44:52;13.60;99.90
29003;DHT22;16102;57.138;-2.118;2023-07-22T06:47:19;13.70;99.90
29003;DHT22;16102;57.138;-2.118;2023-07-22T06:49:46;13.80;99.90
29003;DHT22;16102;57.138;-2.118;2023-07-22T06:52:13;13.90;99.90
29003;DHT22;16102;57.138;-2.118;2023-07-22T06:54:40;14.00;88.00
29003;DHT22;16102;57.138;-2.118;2023-07-22T06:57:08;14.10;87.50
29003;DHT22;16102;57.138;-2.118;2023-07-22T06:59:35;14.10;61.80
29003;DHT22;16102;57.138;-2.118;2023-07-22T07:02:03;14.10;70.90
29003;DHT22;16102;57.138;-2.118;2023-07-22T07:04:31;14.20;50.60
29003;DHT22;16102;57.138;-2.118;2023-07-22T07:06:58;14.20;26.50
29003;DHT22;16102;57.138;-2.118;2023-07-22T07:09:26;14.20;23.30
29003;DHT22;16102;57.138;-2.118;2023-07-22T07:11:53;14.20;4.00
29003;DHT22;16102;57.138;-2.118;2023-07-22T07:14:24;14.20;1.00
29003;DHT22;16102;57.138;-2.118;2023-07-22T07:16:51;14.20;1.00
29003;DHT22;16102;57.138;-2.118;2023-07-22T07:19:18;14.20;1.00
29003;DHT22;16102;57.138;-2.118;2023-07-22T07:21:45;14.20;1.00
29003;DHT22;16102;57.138;-2.118;2023-07-22T07:24:12;14.20;1.00
29003;DHT22;16102;57.138;-2.118;2023-07-22T07:26:40;14.30;1.00
29003;DHT22;16102;57.138;-2.118;2023-07-22T07:29:07;14.30;1.00
29003;DHT22;16102;57.138;-2.118;2023-07-22T07:31:34;14.40;1.00
29003;DHT22;16102;57.138;-2.118;2023-07-22T07:34:02;14.50;1.00
29003;DHT22;16102;57.138;-2.118;2023-07-22T07:36:29;14.60;1.00
29003;DHT22;16102;57.138;-2.118;2023-07-22T07:38:59;14.60;1.00
29003;DHT22;16102;57.138;-2.118;2023-07-22T07:41:28;14.60;1.00
29003;DHT22;16102;57.138;-2.118;2023-07-22T07:43:55;14.60;1.00
29003;DHT22;16102;57.138;-2.118;2023-07-22T07:46:24;14.70;1.00
29003;DHT22;16102;57.138;-2.118;2023-07-22T07:48:58;14.70;1.00
29003;DHT22;16102;57.138;-2.118;2023-07-22T07:51:26;14.80;1.00
29003;DHT22;16102;57.138;-2.118;2023-07-22T07:53:54;14.80;1.00
29003;DHT22;16102;57.138;-2.118;2023-07-22T07:56:22;14.90;1.00
29003;DHT22;16102;57.138;-2.118;2023-07-22T07:58:50;14.90;1.00
29003;DHT22;16102;57.138;-2.118;2023-07-22T08:01:18;14.90;1.00
29003;DHT22;16102;57.138;-2.118;2023-07-22T08:03:45;14.90;1.00
29003;DHT22;16102;57.138;-2.118;2023-07-22T08:06:13;15.00;1.00
29003;DHT22;16102;57.138;-2.118;2023-07-22T08:08:42;15.00;1.00
29003;DHT22;16102;57.138;-2.118;2023-07-22T08:11:15;15.00;1.00
29003;DHT22;16102;57.138;-2.118;2023-07-22T08:13:43;14.90;1.00
29003;DHT22;16102;57.138;-2.118;2023-07-22T08:16:12;14.90;1.00
29003;DHT22;16102;57.138;-2.118;2023-07-22T08:18:39;15.00;1.00
29003;DHT22;16102;57.138;-2.118;2023-07-22T08:21:07;15.00;1.00
29003;DHT22;16102;57.138;-2.118;2023-07-22T08:23:36;15.00;1.00
29003;DHT22;16102;57.138;-2.118;2023-07-22T08:26:04;15.00;1.00
29003;DHT22;16102;57.138;-2.118;2023-07-22T08:28:34;14.90;1.00
29003;DHT22;16102;57.138;-2.118;2023-07-22T08:31:01;14.90;1.00
29003;DHT22;16102;57.138;-2.118;2023-07-22T08:33:29;14.90;1.00
29003;DHT22;16102;57.138;-2.118;2023-07-22T08:36:08;14.90;1.00
29003;DHT22;16102;57.138;-2.118;2023-07-22T08:38:35;15.00;1.00
29003;DHT22;16102;57.138;-2.118;2023-07-22T08:41:03;15.10;1.00
29003;DHT22;16102;57.138;-2.118;2023-07-22T08:43:31;15.30;1.00
29003;DHT22;16102;57.138;-2.118;2023-07-22T08:46:01;15.30;1.00
29003;DHT22;16102;57.138;-2.118;2023-07-22T08:48:30;15.30;1.00
29003;DHT22;16102;57.138;-2.118;2023-07-22T08:51:07;15.30;1.00
29003;DHT22;16102;57.138;-2.118;2023-07-22T08:53:34;15.40;1.00
29003;DHT22;16102;57.138;-2.118;2023-07-22T08:56:02;15.40;1.00
29003;DHT22;16102;57.138;-2.118;2023-07-22T08:58:30;15.50;1.00
29003;DHT22;16102;57.138;-2.118;2023-07-22T09:01:02;15.60;1.00
29003;DHT22;16102;57.138;-2.118;2023-07-22T09:03:32;15.60;1.00
29003;DHT22;16102;57.138;-2.118;2023-07-22T09:05:59;15.70;1.00
29003;DHT22;16102;57.138;-2.118;2023-07-22T09:08:27;15.70;1.00
29003;DHT22;16102;57.138;-2.118;2023-07-22T09:10:54;15.70;1.00
29003;DHT22;16102;57.138;-2.118;2023-07-22T09:13:23;15.70;1.00
29003;DHT22;16102;57.138;-2.118;2023-07-22T09:15:52;15.80;1.00
29003;DHT22;16102;57.138;-2.118;2023-07-22T09:18:19;16.00;1.00
29003;DHT22;16102;57.138;-2.118;2023-07-22T09:20:47;15.90;1.00
29003;DHT22;16102;57.138;-2.118;2023-07-22T09:23:14;16.10;1.00
29003;DHT22;16102;57.138;-2.118;2023-07-22T09:25:42;16.30;1.00
29003;DHT22;16102;57.138;-2.118;2023-07-22T09:28:09;16.40;1.00
29003;DHT22;16102;57.138;-2.118;2023-07-22T09:30:38;16.50;1.00
29003;DHT22;16102;57.138;-2.118;2023-07-22T09:33:20;16.60;1.00
29003;DHT22;16102;57.138;-2.118;2023-07-22T09:35:49;16.60;1.00
29003;DHT22;16102;57.138;-2.118;2023-07-22T09:38:25;16.70;1.00
29003;DHT22;16102;57.138;-2.118;2023-07-22T09:40:53;16.70;1.00
29003;DHT22;16102;57.138;-2.118;2023-07-22T09:43:23;16.90;1.00
29003;DHT22;16102;57.138;-2.118;2023-07-22T09:45:50;17.00;1.00
29003;DHT22;16102;57.138;-2.118;2023-07-22T09:48:17;16.90;1.00
29003;DHT22;16102;57.138;-2.118;2023-07-22T09:50:44;16.80;1.00
29003;DHT22;16102;57.138;-2.118;2023-07-22T09:53:15;17.00;1.00
29003;DHT22;16102;57.138;-2.118;2023-07-22T09:55:43;17.20;1.00
29003;DHT22;16102;57.138;-2.118;2023-07-22T09:58:12;17.30;1.00
29003;DHT22;16102;57.138;-2.118;2023-07-22T10:00:48;17.40;1.00
29003;DHT22;16102;57.138;-2.118;2023-07-22T10:03:16;17.50;1.00
29003;DHT22;16102;57.138;-2.118;2023-07-22T10:05:45;17.30;1.00
29003;DHT22;16102;57.138;-2.118;2023-07-22T10:08:18;17.30;1.00
29003;DHT22;16102;57.138;-2.118;2023-07-22T10:10:46;17.40;1.00
29003;DHT22;16102;57.138;-2.118;2023-07-22T10:13:14;17.60;1.00
29003;DHT22;16102;57.138;-2.118;2023-07-22T10:15:42;17.80;1.00
29003;DHT22;16102;57.138;-2.118;2023-07-22T10:18:09;17.80;1.00
29003;DHT22;16102;57.138;-2.118;2023-07-22T10:20:38;17.90;1.00
29003;DHT22;16102;57.138;-2.118;2023-07-22T10:23:07;18.00;1.00
29003;DHT22;16102;57.138;-2.118;2023-07-22T10:25:39;18.10;1.00
29003;DHT22;16102;57.138;-2.118;2023-07-22T10:28:06;18.20;1.00
29003;DHT22;16102;57.138;-2.118;2023-07-22T10:30:34;18.30;1.00
29003;DHT22;16102;57.138;-2.118;2023-07-22T10:33:01;18.40;1.00
29003;DHT22;16102;57.138;-2.118;2023-07-22T10:38:16;18.60;1.00
29003;DHT22;16102;57.138;-2.118;2023-07-22T10:40:50;18.70;1.00
29003;DHT22;16102;57.138;-2.118;2023-07-22T10:43:31;18.80;1.00
29003;DHT22;16102;57.138;-2.118;2023-07-22T10:46:11;18.40;1.00
29003;DHT22;16102;57.138;-2.118;2023-07-22T10:48:40;18.40;1.00
29003;DHT22;16102;57.138;-2.118;2023-07-22T10:51:13;18.40;1.00
29003;DHT22;16102;57.138;-2.118;2023-07-22T10:53:46;18.80;1.00
29003;DHT22;16102;57.138;-2.118;2023-07-22T10:56:21;18.80;1.00
29003;DHT22;16102;57.138;-2.118;2023-07-22T11:12:00;19.70;1.00
29003;DHT22;16102;57.138;-2.118;2023-07-22T11:14:30;19.70;1.00
29003;DHT22;16102;57.138;-2.118;2023-07-22T11:17:02;19.80;1.00
29003;DHT22;16102;57.138;-2.118;2023-07-22T11:19:32;20.00;1.00
29003;DHT22;16102;57.138;-2.118;2023-07-22T11:22:00;19.90;1.00
29003;DHT22;16102;57.138;-2.118;2023-07-22T11:24:28;19.90;1.00
29003;DHT22;16102;57.138;-2.118;2023-07-22T11:26:57;19.60;1.00
29003;DHT22;16102;57.138;-2.118;2023-07-22T11:29:24;19.20;1.00
29003;DHT22;16102;57.138;-2.118;2023-07-22T11:31:52;19.60;1.00
29003;DHT22;16102;57.138;-2.118;2023-07-22T11:34:21;20.00;1.00
29003;DHT22;16102;57.138;-2.118;2023-07-22T11:36:50;20.50;1.00
29003;DHT22;16102;57.138;-2.118;2023-07-22T11:39:19;20.30;1.00
29003;DHT22;16102;57.138;-2.118;2023-07-22T11:41:47;20.60;99.90
29003;DHT22;16102;57.138;-2.118;2023-07-22T11:44:17;20.80;99.90
29003;DHT22;16102;57.138;-2.118;2023-07-22T11:52:11;20.40;99.90
29003;DHT22;16102;57.138;-2.118;2023-07-22T11:54:40;20.60;99.90
29003;DHT22;16102;57.138;-2.118;2023-07-22T11:59:51;21.90;99.90
29003;DHT22;16102;57.138;-2.118;2023-07-22T12:02:23;22.70;99.90
29003;DHT22;16102;57.138;-2.118;2023-07-22T12:04:58;23.10;99.90
29003;DHT22;16102;57.138;-2.118;2023-07-22T12:07:36;23.30;99.90
29003;DHT22;16102;57.138;-2.118;2023-07-22T12:10:05;23.50;99.90
29003;DHT22;16102;57.138;-2.118;2023-07-22T12:12:41;23.30;99.90
29003;DHT22;16102;57.138;-2.118;2023-07-22T12:17:58;24.00;99.90
29003;DHT22;16102;57.138;-2.118;2023-07-22T12:20:28;23.20;99.90
29003;DHT22;16102;57.138;-2.118;2023-07-22T12:22:59;22.30;99.90
29003;DHT22;16102;57.138;-2.118;2023-07-22T12:25:26;22.20;99.90
29003;DHT22;16102;57.138;-2.118;2023-07-22T12:27:54;22.20;99.90
29003;DHT22;16102;57.138;-2.118;2023-07-22T12:30:21;22.00;99.90
29003;DHT22;16102;57.138;-2.118;2023-07-22T12:32:48;22.00;99.90
29003;DHT22;16102;57.138;-2.118;2023-07-22T12:35:16;22.00;99.90
29003;DHT22;16102;57.138;-2.118;2023-07-22T12:37:43;22.00;99.90
29003;DHT22;16102;57.138;-2.118;2023-07-22T12:40:11;22.10;99.90
29003;DHT22;16102;57.138;-2.118;2023-07-22T12:42:39;21.70;99.90
29003;DHT22;16102;57.138;-2.118;2023-07-22T12:45:08;21.40;99.90
29003;DHT22;16102;57.138;-2.118;2023-07-22T12:47:35;21.10;99.90
29003;DHT22;16102;57.138;-2.118;2023-07-22T12:50:05;21.50;99.90
29003;DHT22;16102;57.138;-2.118;2023-07-22T12:52:35;21.80;99.90
29003;DHT22;16102;57.138;-2.118;2023-07-22T12:55:02;21.80;99.90
29003;DHT22;16102;57.138;-2.118;2023-07-22T12:57:29;22.00;99.90
29003;DHT22;16102;57.138;-2.118;2023-07-22T12:59:56;21.60;99.90
29003;DHT22;16102;57.138;-2.118;2023-07-22T13:02:23;21.60;99.90
29003;DHT22;16102;57.138;-2.118;2023-07-22T13:04:52;21.40;99.90
29003;DHT22;16102;57.138;-2.118;2023-07-22T13:07:19;21.70;99.90
29003;DHT22;16102;57.138;-2.118;2023-07-22T13:09:46;22.00;99.90
29003;DHT22;16102;57.138;-2.118;2023-07-22T13:12:15;22.00;99.90
29003;DHT22;16102;57.138;-2.118;2023-07-22T13:14:42;22.50;99.90
29003;DHT22;16102;57.138;-2.118;2023-07-22T13:17:09;23.30;99.90
29003;DHT22;16102;57.138;-2.118;2023-07-22T13:19:36;24.40;99.90
29003;DHT22;16102;57.138;-2.118;2023-07-22T13:22:03;26.00;99.90
29003;DHT22;16102;57.138;-2.118;2023-07-22T13:24:30;26.70;99.90
29003;DHT22;16102;57.138;-2.118;2023-07-22T13:26:58;27.60;99.90
29003;DHT22;16102;57.138;-2.118;2023-07-22T13:29:25;27.70;99.90
29003;DHT22;16102;57.138;-2.118;2023-07-22T13:31:52;27.60;99.90
29003;DHT22;16102;57.138;-2.118;2023-07-22T13:34:19;28.00;99.90
29003;DHT22;16102;57.138;-2.118;2023-07-22T13:36:46;28.60;99.90
29003;DHT22;16102;57.138;-2.118;2023-07-22T13:39:13;28.70;99.90
29003;DHT22;16102;57.138;-2.118;2023-07-22T13:41:40;28.90;99.90
29003;DHT22;16102;57.138;-2.118;2023-07-22T13:44:07;27.90;99.90
29003;DHT22;16102;57.138;-2.118;2023-07-22T13:46:34;27.90;99.90
29003;DHT22;16102;57.138;-2.118;2023-07-22T13:49:01;27.90;99.90
29003;DHT22;16102;57.138;-2.118;2023-07-22T13:51:28;28.70;99.90
29003;DHT22;16102;57.138;-2.118;2023-07-22T13:53:55;28.20;99.90
29003;DHT22;16102;57.138;-2.118;2023-07-22T13:56:24;29.00;99.90
29003;DHT22;16102;57.138;-2.118;2023-07-22T13:58:53;29.40;99.90
29003;DHT22;16102;57.138;-2.118;2023-07-22T14:01:21;29.10;99.90
29003;DHT22;16102;57.138;-2.118;2023-07-22T14:03:48;27.50;99.90
29003;DHT22;16102;57.138;-2.118;2023-07-22T14:06:15;27.30;99.90
29003;DHT22;16102;57.138;-2.118;2023-07-22T14:08:42;27.80;99.90
29003;DHT22;16102;57.138;-2.118;2023-07-22T14:11:09;28.20;99.90
29003;DHT22;16102;57.138;-2.118;2023-07-22T14:13:36;28.20;99.90
29003;DHT22;16102;57.138;-2.118;2023-07-22T14:16:03;27.70;99.90
29003;DHT22;16102;57.138;-2.118;2023-07-22T14:18:47;28.00;99.90
29003;DHT22;16102;57.138;-2.118;2023-07-22T14:21:15;28.40;99.90
29003;DHT22;16102;57.138;-2.118;2023-07-22T14:23:42;28.60;99.90
29003;DHT22;16102;57.138;-2.118;2023-07-22T14:26:10;28.60;99.90
29003;DHT22;16102;57.138;-2.118;2023-07-22T14:28:37;27.60;99.90
29003;DHT22;16102;57.138;-2.118;2023-07-22T14:31:04;27.00;99.90
29003;DHT22;16102;57.138;-2.118;2023-07-22T14:33:31;27.20;99.90
29003;DHT22;16102;57.138;-2.118;2023-07-22T14:35:58;25.80;99.90
29003;DHT22;16102;57.138;-2.118;2023-07-22T14:38:25;26.30;99.90
29003;DHT22;16102;57.138;-2.118;2023-07-22T14:40:52;26.50;99.90
29003;DHT22;16102;57.138;-2.118;2023-07-22T14:43:19;26.10;99.90
29003;DHT22;16102;57.138;-2.118;2023-07-22T14:45:48;26.40;99.90
29003;DHT22;16102;57.138;-2.118;2023-07-22T14:48:15;25.60;99.90
29003;DHT22;16102;57.138;-2.118;2023-07-22T14:50:42;25.50;99.90
29003;DHT22;16102;57.138;-2.118;2023-07-22T14:53:09;25.10;99.90
29003;DHT22;16102;57.138;-2.118;2023-07-22T14:55:36;24.90;99.90
29003;DHT22;16102;57.138;-2.118;2023-07-22T14:58:03;25.20;99.90
29003;DHT22;16102;57.138;-2.118;2023-07-22T15:00:30;25.20;99.90
29003;DHT22;16102;57.138;-2.118;2023-07-22T15:02:57;26.00;99.90
29003;DHT22;16102;57.138;-2.118;2023-07-22T15:05:24;26.60;99.90
29003;DHT22;16102;57.138;-2.118;2023-07-22T15:07:51;25.30;99.90
29003;DHT22;16102;57.138;-2.118;2023-07-22T15:10:18;26.10;99.90
29003;DHT22;16102;57.138;-2.118;2023-07-22T15:12:45;26.90;99.90
29003;DHT22;16102;57.138;-2.118;2023-07-22T15:15:12;27.80;99.90
29003;DHT22;16102;57.138;-2.118;2023-07-22T15:17:40;27.80;99.90
29003;DHT22;16102;57.138;-2.118;2023-07-22T15:20:07;28.10;99.90
29003;DHT22;16102;57.138;-2.118;2023-07-22T15:22:36;28.70;99.90
29003;DHT22;16102;57.138;-2.118;2023-07-22T15:25:04;29.00;99.90
29003;DHT22;16102;57.138;-2.118;2023-07-22T15:27:31;29.70;99.90
29003;DHT22;16102;57.138;-2.118;2023-07-22T15:29:58;29.90;99.90
29003;DHT22;16102;57.138;-2.118;2023-07-22T15:32:25;29.10;99.90
29003;DHT22;16102;57.138;-2.118;2023-07-22T15:34:52;29.40;99.90
29003;DHT22;16102;57.138;-2.118;2023-07-22T15:37:19;30.00;99.90
29003;DHT22;16102;57.138;-2.118;2023-07-22T15:39:46;30.40;99.90
29003;DHT22;16102;57.138;-2.118;2023-07-22T15:42:15;29.50;99.90
29003;DHT22;16102;57.138;-2.118;2023-07-22T15:44:42;28.60;99.90
29003;DHT22;16102;57.138;-2.118;2023-07-22T15:47:08;29.10;99.90
29003;DHT22;16102;57.138;-2.118;2023-07-22T15:49:35;29.80;99.90
29003;DHT22;16102;57.138;-2.118;2023-07-22T15:52:02;30.30;99.90
29003;DHT22;16102;57.138;-2.118;2023-07-22T15:54:31;30.50;99.90